Terminal Aerodrome Forecast
Issued by NWS

Home | Current Version | Previous Version | Text Only | Print | Product List | Glossary On
Versions: 1 2 3 4 5 6 7 8 9 10 11 12 13 14 15
414
FTUS44 KCRP 272327
TAFLRD
TAF
KLRD 272327Z 2800/2824 11005KT P6SM FEW050
     FM280200 12011KT P6SM SCT030
     FM281000 14010KT P6SM BKN018
     FM281500 16015KT P6SM SCT030 BKN250=

USA.gov is the U.S. government's official web portal to all federal, state and local government web resources and services.